createdAt,value
2023-01-10T00:00:14.380Z,6.4
2023-01-10T00:05:14.783Z,6.4
2023-01-10T00:10:14.441Z,6.4
2023-01-10T00:15:14.890Z,6.4
2023-01-10T00:20:15.265Z,6.4
2023-01-10T00:25:14.925Z,6.4
2023-01-10T00:30:14.438Z,6.4
2023-01-10T00:35:14.983Z,6.4
2023-01-10T00:40:14.472Z,6.4
2023-01-10T00:45:14.745Z,6.4
2023-01-10T00:50:15.043Z,6.5
2023-01-10T00:55:14.427Z,6.5
2023-01-10T01:00:14.828Z,6.5
2023-01-10T01:05:15.422Z,6.5
2023-01-10T01:10:15.011Z,6.5
2023-01-10T01:15:14.398Z,6.5
2023-01-10T01:20:14.768Z,6.5
2023-01-10T01:25:15.343Z,6.5
2023-01-10T01:30:14.635Z,6.4
2023-01-10T01:35:15.199Z,6.4
2023-01-10T01:40:14.565Z,6.4
2023-01-10T01:45:15.117Z,6.4
2023-01-10T01:50:15.252Z,6.4
2023-01-10T01:55:14.685Z,6.4
2023-01-10T02:00:15.100Z,6.4
2023-01-10T02:05:15.038Z,6.4
2023-01-10T02:10:14.600Z,6.3
2023-01-10T02:15:15.268Z,6.3
2023-01-10T02:20:14.576Z,6.3
2023-01-10T02:25:15.316Z,6.3
2023-01-10T02:30:14.583Z,6.3
2023-01-10T02:35:15.052Z,6.3
2023-01-10T02:40:14.406Z,6.2
2023-01-10T02:45:15.111Z,6.2
2023-01-10T02:50:14.966Z,6.1
2023-01-10T02:55:15.238Z,6.1
2023-01-10T03:00:15.340Z,6.1
2023-01-10T03:05:15.214Z,6.1
2023-01-10T03:10:15.215Z,6
2023-01-10T03:15:14.804Z,6
2023-01-10T03:20:15.320Z,6
2023-01-10T03:25:14.805Z,6
2023-01-10T03:30:14.654Z,6
2023-01-10T03:35:14.856Z,6
2023-01-10T03:40:14.521Z,6
2023-01-10T03:45:14.594Z,6
2023-01-10T03:50:14.562Z,5.9
2023-01-10T03:55:14.872Z,5.9
2023-01-10T04:00:14.943Z,5.9
2023-01-10T04:05:14.777Z,5.9
2023-01-10T04:10:15.232Z,5.9
2023-01-10T04:15:14.899Z,5.9
2023-01-10T04:20:15.008Z,5.7
2023-01-10T04:25:15.039Z,5.7
2023-01-10T04:30:14.492Z,5.6
2023-01-10T04:35:14.692Z,5.6
2023-01-10T04:40:15.309Z,5.6
2023-01-10T04:45:15.038Z,5.6
2023-01-10T04:50:14.695Z,5.4
2023-01-10T04:55:14.557Z,5.4
2023-01-10T05:00:15.075Z,5.4
2023-01-10T05:05:14.900Z,5.4
2023-01-10T05:10:15.126Z,5.4
2023-01-10T05:15:15.024Z,5.4
2023-01-10T05:20:15.389Z,5.4
2023-01-10T05:25:15.059Z,5.4
2023-01-10T05:30:15.434Z,5.5
2023-01-10T05:35:14.979Z,5.5
2023-01-10T05:40:15.510Z,5.5
2023-01-10T05:45:14.789Z,5.5
2023-01-10T05:50:15.163Z,5.6
2023-01-10T05:55:15.011Z,5.6
2023-01-10T06:00:15.347Z,5.6
2023-01-10T06:05:14.753Z,5.6
2023-01-10T06:10:15.134Z,5.6
2023-01-10T06:15:14.658Z,5.6
2023-01-10T06:20:14.566Z,5.6
2023-01-10T06:25:15.483Z,5.6
2023-01-10T06:30:14.727Z,5.4
2023-01-10T06:35:14.966Z,5.4
2023-01-10T06:40:15.295Z,5.3
2023-01-10T06:45:14.592Z,5.3
2023-01-10T06:50:14.903Z,5.3
2023-01-10T06:55:15.320Z,5.3
2023-01-10T07:00:15.306Z,5.2
2023-01-10T07:05:14.694Z,5.2
2023-01-10T07:10:14.582Z,5.1
2023-01-10T07:15:15.366Z,5.1
2023-01-10T07:20:14.867Z,5.1
2023-01-10T07:25:15.479Z,5.1
2023-01-10T07:30:14.838Z,5.1
2023-01-10T07:35:14.744Z,5.1
2023-01-10T07:40:15.342Z,4.9
2023-01-10T07:45:14.818Z,4.9
2023-01-10T07:50:15.669Z,4.9
2023-01-10T07:55:15.276Z,4.9
2023-01-10T08:00:17.910Z,4.8
2023-01-10T08:05:15.516Z,4.8
2023-01-10T08:10:14.995Z,4.7
2023-01-10T08:15:15.526Z,4.7
2023-01-10T08:20:14.853Z,4.7
2023-01-10T08:25:15.521Z,4.7
2023-01-10T08:30:14.973Z,4.6
2023-01-10T08:35:15.200Z,4.6
2023-01-10T08:40:15.614Z,4.5
2023-01-10T08:45:15.548Z,4.5
2023-01-10T08:50:15.025Z,4.5
2023-01-10T08:55:15.137Z,4.5
2023-01-10T09:00:14.823Z,4.6
2023-01-10T09:05:26.274Z,4.6
2023-01-10T09:10:15.358Z,4.8
2023-01-10T09:15:15.108Z,4.8
2023-01-10T09:20:15.103Z,5.1
2023-01-10T09:25:15.622Z,5.1
2023-01-10T09:30:15.182Z,5.3
2023-01-10T09:35:15.272Z,5.3
2023-01-10T09:40:15.735Z,5.5
2023-01-10T09:45:15.372Z,5.5
2023-01-10T09:50:14.860Z,5.7
2023-01-10T09:55:15.301Z,5.7
2023-01-10T10:00:15.672Z,5.8
2023-01-10T10:05:15.638Z,5.8
2023-01-10T10:10:14.760Z,5.9
2023-01-10T10:15:15.659Z,5.9
2023-01-10T10:20:14.963Z,6
2023-01-10T10:25:14.927Z,6
2023-01-10T10:30:15.764Z,6
2023-01-10T10:35:15.214Z,6
2023-01-10T10:40:15.591Z,6.1
2023-01-10T10:45:15.015Z,6.1
2023-01-10T10:50:14.913Z,6.1
2023-01-10T10:55:15.442Z,6.1
2023-01-10T11:00:15.415Z,6.2
2023-01-10T11:05:14.995Z,6.2
2023-01-10T11:10:15.002Z,6.2
2023-01-10T11:15:15.468Z,6.2
2023-01-10T11:20:15.500Z,6.2
2023-01-10T11:25:15.582Z,6.2
2023-01-10T11:30:15.574Z,6.2
2023-01-10T11:35:15.564Z,6.2
2023-01-10T11:40:15.152Z,6.3
2023-01-10T11:45:15.186Z,6.3
2023-01-10T11:50:15.498Z,6.3
2023-01-10T11:55:15.443Z,6.3
2023-01-10T12:00:15.368Z,6.3
2023-01-10T12:05:14.822Z,6.3
2023-01-10T12:10:14.911Z,6.4
2023-01-10T12:15:15.174Z,6.4
2023-01-10T12:20:15.169Z,6.4
2023-01-10T12:25:15.549Z,6.4
2023-01-10T12:30:15.030Z,6.5
2023-01-10T12:35:15.274Z,6.5
2023-01-10T12:40:14.860Z,6.6
2023-01-10T12:45:14.889Z,6.6
2023-01-10T12:50:15.637Z,6.6
2023-01-10T12:55:15.651Z,6.6
2023-01-10T13:00:15.720Z,6.7
2023-01-10T13:05:15.056Z,6.7
2023-01-10T13:10:15.223Z,6.7
2023-01-10T13:15:15.397Z,6.7
2023-01-10T13:20:15.155Z,6.8
2023-01-10T13:25:15.711Z,6.8
2023-01-10T13:30:15.605Z,6.8
2023-01-10T13:35:15.505Z,6.8
2023-01-10T13:40:15.108Z,6.8
2023-01-10T13:45:15.160Z,6.8
2023-01-10T13:50:15.201Z,6.8
2023-01-10T13:55:15.153Z,6.8
2023-01-10T14:00:14.984Z,6.8
2023-01-10T14:05:15.366Z,6.8
2023-01-10T14:10:15.687Z,6.8
2023-01-10T14:15:15.033Z,6.8
2023-01-10T14:20:14.992Z,6.8
2023-01-10T14:25:14.954Z,6.8
2023-01-10T14:30:15.211Z,6.8
2023-01-10T14:35:15.202Z,6.8
2023-01-10T14:40:15.750Z,6.8
2023-01-10T14:45:14.912Z,6.8
2023-01-10T14:50:14.976Z,6.8
2023-01-10T14:55:15.160Z,6.8
2023-01-10T15:00:17.477Z,6.7
2023-01-10T15:05:15.502Z,6.7
2023-01-10T15:10:15.867Z,6.7
2023-01-10T15:15:15.537Z,6.7
2023-01-10T15:20:15.056Z,6.6
2023-01-10T15:25:15.223Z,6.6
2023-01-10T15:30:15.211Z,6.6
2023-01-10T15:35:20.300Z,6.6
2023-01-10T15:40:15.236Z,6.5
2023-01-10T15:45:15.092Z,6.5
2023-01-10T15:50:15.403Z,6.5
2023-01-10T15:55:15.792Z,6.5
2023-01-10T16:00:15.676Z,6.4
2023-01-10T16:05:15.100Z,6.4
2023-01-10T16:10:15.238Z,6.4
2023-01-10T16:15:15.802Z,6.4
2023-01-10T16:20:15.152Z,6.4
2023-01-10T16:25:15.277Z,6.4
2023-01-10T16:30:15.188Z,6.4
2023-01-10T16:35:16.478Z,6.4
2023-01-10T16:40:15.109Z,6.4
2023-01-10T16:45:15.402Z,6.4
2023-01-10T16:50:15.620Z,6.3
2023-01-10T16:55:15.093Z,6.3
2023-01-10T17:00:15.121Z,6.3
2023-01-10T17:05:16.661Z,6.3
2023-01-10T17:10:15.837Z,6.2
2023-01-10T17:15:15.745Z,6.2
2023-01-10T17:20:15.840Z,6.2
2023-01-10T17:25:14.925Z,6.2
2023-01-10T17:30:15.330Z,6.1
2023-01-10T17:35:15.242Z,6.1
2023-01-10T17:40:15.267Z,6
2023-01-10T17:45:15.851Z,6
2023-01-10T17:50:15.662Z,5.9
2023-01-10T17:55:15.713Z,5.9
2023-01-10T18:00:15.620Z,5.9
2023-01-10T18:05:15.871Z,5.9
2023-01-10T18:10:15.890Z,5.8
2023-01-10T18:15:15.895Z,5.8
2023-01-10T18:20:15.900Z,5.8
2023-01-10T18:25:15.876Z,5.8
2023-01-10T18:30:16.169Z,5.8
2023-01-10T18:35:15.329Z,5.8
2023-01-10T18:40:15.798Z,5.7
2023-01-10T18:45:15.820Z,5.7
2023-01-10T18:50:15.433Z,5.7
2023-01-10T18:55:15.664Z,5.7
2023-01-10T19:00:15.545Z,5.7
2023-01-10T19:05:15.490Z,5.7
2023-01-10T19:10:15.558Z,5.7
2023-01-10T19:15:16.054Z,5.7
2023-01-10T19:20:15.628Z,5.7
2023-01-10T19:25:15.764Z,5.7
2023-01-10T19:30:15.146Z,5.7
2023-01-10T19:35:15.079Z,5.7
2023-01-10T19:40:15.536Z,5.7
2023-01-10T19:45:15.675Z,5.7
2023-01-10T19:50:15.596Z,5.8
2023-01-10T19:55:15.109Z,5.8
2023-01-10T20:00:15.322Z,5.8
2023-01-10T20:05:15.217Z,5.8
2023-01-10T20:10:15.619Z,5.9
2023-01-10T20:15:15.732Z,5.9
2023-01-10T20:20:15.074Z,5.9
2023-01-10T20:25:15.042Z,5.9
2023-01-10T20:30:16.063Z,6
2023-01-10T20:35:15.919Z,6
2023-01-10T20:40:15.882Z,6
2023-01-10T20:45:15.963Z,6
2023-01-10T20:50:15.927Z,6.1
2023-01-10T20:55:15.428Z,6.1
2023-01-10T21:00:15.706Z,6.1
2023-01-10T21:05:15.961Z,6.1
2023-01-10T21:10:16.039Z,5.9
2023-01-10T21:15:15.969Z,5.9
2023-01-10T21:20:15.573Z,5.8
2023-01-10T21:25:15.727Z,5.8
2023-01-10T21:30:16.077Z,5.7
2023-01-10T21:35:16.010Z,5.7
2023-01-10T21:40:16.008Z,5.6
2023-01-10T21:45:15.611Z,5.6
2023-01-10T21:50:15.688Z,5.5
2023-01-10T21:55:15.842Z,5.5
2023-01-10T22:00:16.026Z,5.4
2023-01-10T22:05:15.750Z,5.4
2023-01-10T22:10:16.091Z,5.4
2023-01-10T22:15:15.669Z,5.4
2023-01-10T22:20:15.903Z,5.4
2023-01-10T22:25:15.996Z,5.4
2023-01-10T22:30:16.000Z,5.4
2023-01-10T22:35:16.135Z,5.4
2023-01-10T22:40:15.645Z,5.4
2023-01-10T22:45:15.592Z,5.4
2023-01-10T22:50:15.678Z,5.4
2023-01-10T22:55:15.663Z,5.4
2023-01-10T23:00:15.570Z,5.4
2023-01-10T23:05:15.717Z,5.4
2023-01-10T23:10:29.167Z,5.4
2023-01-10T23:15:15.143Z,5.4
2023-01-10T23:20:15.145Z,5.4
2023-01-10T23:25:15.338Z,5.4
2023-01-10T23:30:16.049Z,5.4
2023-01-10T23:35:16.129Z,5.4
2023-01-10T23:40:16.092Z,5.4
2023-01-10T23:45:15.170Z,5.4
2023-01-10T23:50:16.216Z,5.4
2023-01-10T23:55:15.827Z,5.4
